createdAt,value
2018-06-03T00:18:36.326Z,6.77
2018-06-03T00:21:16.061Z,6.40
2018-06-03T00:23:44.581Z,7.00
2018-06-03T00:26:13.942Z,6.70
2018-06-03T00:28:42.547Z,5.70
2018-06-03T00:31:11.229Z,6.23
2018-06-03T00:33:39.806Z,5.80
2018-06-03T00:38:41.455Z,6.80
2018-06-03T00:43:38.100Z,6.30
2018-06-03T00:46:06.939Z,6.60
2018-06-03T00:48:35.464Z,6.90
2018-06-03T00:51:04.146Z,5.58
2018-06-03T00:53:32.741Z,6.90
2018-06-03T00:56:01.286Z,6.30
2018-06-03T00:58:29.816Z,6.07
2018-06-03T01:00:58.610Z,6.77
2018-06-03T01:03:27.261Z,6.15
2018-06-03T01:05:55.836Z,6.10
2018-06-03T01:08:25.515Z,7.10
2018-06-03T01:10:54.205Z,7.85
2018-06-03T01:13:22.713Z,7.17
2018-06-03T01:15:51.694Z,7.50
2018-06-03T01:18:20.256Z,7.00
2018-06-03T01:20:48.735Z,7.07
2018-06-03T01:23:17.481Z,6.80
2018-06-03T01:25:46.050Z,6.70
2018-06-03T01:28:14.594Z,7.47
2018-06-03T01:30:43.306Z,7.70
2018-06-03T01:33:12.041Z,7.10
2018-06-03T01:35:40.677Z,7.27
2018-06-03T01:38:09.434Z,7.00
2018-06-03T01:45:34.542Z,7.00
2018-06-03T01:48:03.082Z,7.10
2018-06-03T01:55:27.306Z,7.07
2018-06-03T01:57:55.948Z,5.70
2018-06-03T02:00:25.224Z,6.53
2018-06-03T02:02:53.921Z,6.45
2018-06-03T02:05:22.429Z,6.03
2018-06-03T02:07:50.967Z,6.97
2018-06-03T02:10:20.315Z,6.40
2018-06-03T02:12:49.039Z,6.65
2018-06-03T02:20:13.565Z,7.20
2018-06-03T02:27:37.737Z,6.60
2018-06-03T02:37:30.092Z,6.40
2018-06-03T02:39:58.728Z,7.30
2018-06-03T02:44:55.201Z,7.33
2018-06-03T02:47:23.817Z,7.70
2018-06-03T02:49:52.351Z,7.05
2018-06-03T02:52:20.824Z,6.78
2018-06-03T03:04:41.537Z,7.25
2018-06-03T03:07:10.180Z,7.10
2018-06-03T03:14:34.248Z,6.70
2018-06-03T03:21:58.476Z,7.30
2018-06-03T03:26:54.791Z,7.35
2018-06-03T03:34:19.006Z,6.90
2018-06-03T03:39:16.131Z,7.00
2018-06-03T03:46:40.979Z,6.20
2018-06-03T03:54:05.297Z,6.90
2018-06-03T04:01:29.470Z,6.70
2018-06-03T04:06:26.367Z,7.20
2018-06-03T04:13:50.560Z,6.85
2018-06-03T04:16:19.202Z,5.60
2018-06-03T04:18:47.712Z,6.10
2018-06-03T04:21:16.327Z,6.30
2018-06-03T04:26:12.682Z,6.20
2018-06-03T04:28:41.262Z,5.60
2018-06-03T04:31:09.975Z,7.20
2018-06-03T04:33:38.577Z,6.45
2018-06-03T04:43:31.115Z,6.40
2018-06-03T04:48:28.078Z,6.20
2018-06-03T05:15:36.664Z,6.20
2018-06-03T05:18:05.686Z,6.25
2018-06-03T05:20:34.326Z,6.40
2018-06-03T05:23:02.988Z,5.80
2018-06-03T05:40:18.393Z,5.35
2018-06-03T05:50:10.811Z,4.90
2018-06-03T06:00:02.662Z,4.97
2018-06-03T06:02:31.255Z,4.72
2018-06-03T06:04:59.824Z,5.07
2018-06-03T06:07:28.513Z,5.70
2018-06-03T06:09:57.148Z,4.90
2018-06-03T06:12:25.706Z,5.20
2018-06-03T06:14:54.426Z,4.67
2018-06-03T06:17:23.307Z,4.83
2018-06-03T06:19:52.102Z,4.20
2018-06-03T06:22:21.356Z,6.03
2018-06-03T06:24:49.933Z,6.10
2018-06-03T06:27:18.712Z,4.93
2018-06-03T06:29:47.909Z,4.33
2018-06-03T06:32:16.658Z,4.80
2018-06-03T06:34:45.219Z,5.37
2018-06-03T06:37:13.924Z,5.67
2018-06-03T06:39:42.547Z,5.90
2018-06-03T06:42:11.211Z,4.70
2018-06-03T06:44:39.847Z,4.87
2018-06-03T06:47:08.329Z,5.27
2018-06-03T06:49:37.006Z,5.00
2018-06-03T06:52:05.990Z,4.70
2018-06-03T06:54:35.311Z,4.13
2018-06-03T06:57:03.864Z,4.77
2018-06-03T06:59:32.531Z,4.43
2018-06-03T07:02:01.126Z,5.07
2018-06-03T07:04:29.866Z,4.70
2018-06-03T07:06:58.581Z,4.47
2018-06-03T07:09:27.255Z,4.60
2018-06-03T07:11:55.803Z,4.60
2018-06-03T07:14:24.364Z,4.90
2018-06-03T07:16:53.048Z,4.50
2018-06-03T07:19:21.570Z,4.43
2018-06-03T07:21:50.159Z,4.03
2018-06-03T07:24:18.799Z,4.27
2018-06-03T07:26:47.445Z,4.40
2018-06-03T07:29:16.058Z,4.15
2018-06-03T07:31:44.624Z,4.20
2018-06-03T07:36:41.069Z,4.37
2018-06-03T07:41:37.697Z,3.95
2018-06-03T07:58:53.470Z,3.30
2018-06-03T08:30:56.741Z,1.90
2018-06-03T08:33:25.545Z,1.80
2018-06-03T08:35:55.140Z,1.80
2018-06-03T08:38:23.956Z,1.70
2018-06-03T08:40:52.700Z,1.40
2018-06-03T08:43:21.469Z,1.62
2018-06-03T08:45:50.074Z,1.70
2018-06-03T08:48:18.765Z,1.57
2018-06-03T08:50:47.578Z,1.50
2018-06-03T08:53:16.261Z,1.20
2018-06-03T08:55:45.051Z,1.10
2018-06-03T08:58:13.657Z,1.67
2018-06-03T09:00:42.631Z,1.12
2018-06-03T09:03:11.331Z,1.20
2018-06-03T09:05:40.021Z,1.10
2018-06-03T09:08:08.665Z,1.40
2018-06-03T09:10:37.539Z,0.80
2018-06-03T09:13:06.157Z,1.30
2018-06-03T09:15:34.787Z,1.20
2018-06-03T09:18:03.346Z,1.52
2018-06-03T09:20:32.053Z,1.27
2018-06-03T09:23:00.809Z,1.00
2018-06-03T09:25:29.348Z,0.90
2018-06-03T09:27:57.931Z,0.98
2018-06-03T09:30:26.840Z,1.30
2018-06-03T09:32:55.450Z,1.27
2018-06-03T09:35:24.182Z,1.10
2018-06-03T09:37:52.814Z,0.80
2018-06-03T09:40:21.684Z,1.00
2018-06-03T09:42:50.388Z,0.87
2018-06-03T09:45:19.149Z,0.72
2018-06-03T09:47:47.685Z,0.80
2018-06-03T09:50:16.210Z,0.65
2018-06-03T09:52:44.862Z,0.60
2018-06-03T09:55:13.388Z,0.70
2018-06-03T09:57:41.969Z,0.70
2018-06-03T10:00:14.938Z,0.60
2018-06-03T10:02:43.768Z,0.60
2018-06-03T10:05:12.445Z,0.88
2018-06-03T10:07:41.243Z,0.70
2018-06-03T10:10:10.237Z,0.70
2018-06-03T10:12:38.906Z,0.67
2018-06-03T10:15:07.749Z,0.72
2018-06-03T10:17:36.519Z,0.65
2018-06-03T10:20:06.041Z,0.50
2018-06-03T10:22:34.681Z,0.42
2018-06-03T10:25:03.448Z,0.75
2018-06-03T10:27:32.235Z,0.70
2018-06-03T10:30:01.815Z,0.60
2018-06-03T10:32:30.411Z,0.55
2018-06-03T10:34:59.129Z,0.55
2018-06-03T10:37:27.714Z,0.68
2018-06-03T10:39:56.843Z,0.42
2018-06-03T10:42:25.391Z,0.47
2018-06-03T10:44:54.046Z,0.50
2018-06-03T10:47:22.854Z,0.53
2018-06-03T10:49:51.897Z,0.50
2018-06-03T10:52:21.361Z,1.02
2018-06-03T10:54:50.084Z,0.70
2018-06-03T10:57:19.429Z,1.50
2018-06-03T10:59:50.182Z,0.90
2018-06-03T11:02:18.899Z,1.00
2018-06-03T11:04:48.026Z,2.70
2018-06-03T11:07:17.597Z,1.42
2018-06-03T11:09:46.324Z,1.15
2018-06-03T11:12:14.991Z,1.67
2018-06-03T11:14:43.881Z,1.57
2018-06-03T11:17:12.559Z,1.60
2018-06-03T11:19:41.375Z,1.40
2018-06-03T11:22:10.289Z,1.70
2018-06-03T11:24:39.749Z,1.40
2018-06-03T11:27:08.508Z,1.30
2018-06-03T11:29:37.267Z,1.50
2018-06-03T11:34:33.925Z,1.90
2018-06-03T11:37:03.238Z,1.60
2018-06-03T11:39:31.864Z,1.80
2018-06-03T11:49:24.680Z,1.70
2018-06-03T11:51:53.317Z,1.60
2018-06-03T11:54:21.949Z,1.80
2018-06-03T11:57:00.839Z,1.80
2018-06-03T11:59:46.344Z,2.17
2018-06-03T12:04:45.413Z,2.10
2018-06-03T12:07:14.306Z,1.40
2018-06-03T12:09:42.905Z,1.60
2018-06-03T12:12:11.944Z,2.13
2018-06-03T12:14:41.048Z,1.70
2018-06-03T12:19:37.596Z,1.50
2018-06-03T12:22:06.501Z,1.90
2018-06-03T12:24:35.613Z,2.25
2018-06-03T12:27:04.595Z,2.10
2018-06-03T12:29:33.276Z,2.40
2018-06-03T12:32:01.840Z,2.10
2018-06-03T12:34:30.522Z,3.03
2018-06-03T12:36:59.227Z,1.90
2018-06-03T12:39:27.837Z,2.10
2018-06-03T12:41:57.056Z,1.85
2018-06-03T12:44:26.612Z,2.00
2018-06-03T12:56:46.886Z,2.00
2018-06-03T12:59:15.590Z,2.20
2018-06-03T13:04:12.751Z,1.90
2018-06-03T13:06:41.361Z,2.40
2018-06-03T13:09:10.062Z,1.70
2018-06-03T13:11:38.970Z,1.80
2018-06-03T13:16:35.540Z,2.15
2018-06-03T13:21:32.229Z,2.00
2018-06-03T13:33:53.340Z,1.90
2018-06-03T13:36:22.110Z,2.05
2018-06-03T13:43:47.172Z,2.10
2018-06-03T13:46:15.790Z,1.80
2018-06-03T13:51:12.612Z,1.80
2018-06-03T13:53:41.296Z,2.00
2018-06-03T13:56:10.050Z,2.15
2018-06-03T13:58:38.797Z,2.30
2018-06-03T14:01:07.722Z,2.00
2018-06-03T14:08:32.650Z,2.35
2018-06-03T14:11:01.491Z,2.20
2018-06-03T14:13:30.093Z,2.30
2018-06-03T14:15:59.586Z,2.40
2018-06-03T14:23:24.338Z,2.20
2018-06-03T14:33:16.940Z,2.10
2018-06-03T14:35:45.499Z,2.00
2018-06-03T14:40:42.285Z,2.15
2018-06-03T14:50:34.969Z,2.50
2018-06-03T14:53:03.457Z,2.10
2018-06-03T14:55:32.327Z,2.20
2018-06-03T14:58:00.953Z,2.10
2018-06-03T15:00:30.024Z,2.10
2018-06-03T15:05:26.613Z,2.13
2018-06-03T15:07:55.697Z,2.30
2018-06-03T15:10:24.351Z,2.87
2018-06-03T15:12:53.204Z,1.80
2018-06-03T15:15:21.889Z,2.20
2018-06-03T15:17:50.711Z,2.10
2018-06-03T15:20:19.616Z,1.97
2018-06-03T15:22:48.220Z,2.33
2018-06-03T15:25:16.863Z,2.23
2018-06-03T15:27:45.538Z,2.58
2018-06-03T15:30:15.132Z,2.10
2018-06-03T15:32:43.823Z,1.80
2018-06-03T15:35:12.640Z,2.30
2018-06-03T15:37:41.213Z,2.30
2018-06-03T15:40:09.981Z,2.15
2018-06-03T15:42:38.817Z,2.13
2018-06-03T15:45:07.737Z,2.10
2018-06-03T15:47:36.511Z,1.77
2018-06-03T15:50:05.301Z,1.83
2018-06-03T15:52:34.003Z,3.00
2018-06-03T15:55:02.784Z,1.90
2018-06-03T15:57:31.669Z,1.70
2018-06-03T16:02:28.289Z,2.00
2018-06-03T16:07:24.899Z,2.20
2018-06-03T16:09:53.531Z,2.33
2018-06-03T16:12:22.259Z,2.30
2018-06-03T16:17:18.840Z,1.90
2018-06-03T16:19:47.561Z,2.00
2018-06-03T16:22:16.877Z,2.00
2018-06-03T16:24:45.485Z,2.30
2018-06-03T16:27:14.105Z,2.00
2018-06-03T16:29:43.244Z,2.50
2018-06-03T16:34:39.778Z,2.15
2018-06-03T16:37:08.561Z,2.50
2018-06-03T16:39:37.153Z,2.40
2018-06-03T16:42:05.907Z,2.20
2018-06-03T16:44:34.645Z,2.20
2018-06-03T16:47:03.441Z,2.58
2018-06-03T16:49:32.080Z,2.27
2018-06-03T16:52:01.290Z,2.03
2018-06-03T16:54:30.279Z,2.17
2018-06-03T16:56:58.907Z,1.90
2018-06-03T16:59:27.565Z,2.33
2018-06-03T17:01:56.158Z,3.10
2018-06-03T17:04:24.845Z,2.10
2018-06-03T17:06:53.552Z,1.85
2018-06-03T17:09:22.322Z,2.00
2018-06-03T17:11:50.969Z,2.80
2018-06-03T17:14:19.941Z,2.53
2018-06-03T17:16:48.527Z,2.03
2018-06-03T17:19:17.262Z,2.30
2018-06-03T17:21:46.545Z,1.90
2018-06-03T17:24:15.538Z,2.45
2018-06-03T17:26:44.398Z,2.23
2018-06-03T17:29:13.316Z,2.97
2018-06-03T17:31:42.239Z,2.47
2018-06-03T17:34:11.033Z,2.60
2018-06-03T17:39:08.863Z,2.20
2018-06-03T17:41:37.708Z,2.40
2018-06-03T17:44:07.355Z,2.45
2018-06-03T17:46:36.757Z,2.20
2018-06-03T17:56:30.219Z,2.70
2018-06-03T17:58:59.004Z,2.07
2018-06-03T18:08:52.427Z,2.57
2018-06-03T18:11:21.084Z,2.60
2018-06-03T18:13:50.274Z,2.40
2018-06-03T18:18:47.668Z,2.50
2018-06-03T18:48:27.093Z,2.87
2018-06-03T18:50:55.739Z,2.63
2018-06-03T18:53:24.552Z,2.83
2018-06-03T18:55:53.333Z,3.20
2018-06-03T18:58:21.868Z,3.27
2018-06-03T20:56:56.328Z,4.15
2018-06-03T20:59:25.599Z,4.27
2018-06-03T21:01:54.458Z,4.30
2018-06-03T21:16:45.194Z,4.10
2018-06-03T21:19:14.194Z,3.93
2018-06-03T21:21:42.992Z,4.97
2018-06-03T21:24:11.849Z,4.60
2018-06-03T21:26:40.563Z,4.90
2018-06-03T21:29:09.164Z,4.90
2018-06-03T22:03:39.535Z,4.60
2018-06-03T22:06:08.134Z,4.10
2018-06-03T22:11:04.319Z,4.60
2018-06-03T22:20:56.423Z,4.40
2018-06-03T22:23:24.969Z,5.10
2018-06-03T22:28:21.778Z,4.60
2018-06-03T22:35:46.120Z,4.90
2018-06-03T22:40:42.795Z,5.10
2018-06-03T22:43:11.505Z,5.20
2018-06-03T22:45:40.283Z,5.00
2018-06-03T22:50:36.678Z,4.73
2018-06-03T22:53:05.264Z,5.00
2018-06-03T22:55:33.817Z,5.20
2018-06-03T22:58:03.238Z,4.90
2018-06-03T23:00:33.543Z,6.40
2018-06-03T23:03:07.588Z,5.50
2018-06-03T23:05:36.555Z,5.40
2018-06-03T23:08:05.156Z,5.03
2018-06-03T23:10:33.665Z,4.53
2018-06-03T23:13:02.481Z,5.45
2018-06-03T23:17:59.038Z,5.00
2018-06-03T23:20:27.634Z,4.10
2018-06-03T23:25:24.028Z,5.30
2018-06-03T23:27:52.589Z,5.30
2018-06-03T23:30:21.344Z,6.00
2018-06-03T23:32:49.828Z,5.00
2018-06-03T23:35:18.438Z,4.95
2018-06-03T23:42:42.478Z,5.50
2018-06-03T23:45:11.775Z,4.80
2018-06-03T23:47:40.366Z,5.50
2018-06-03T23:50:09.019Z,5.00
2018-06-03T23:52:37.710Z,5.20
